sensor_id;sensor_type;location;lat;lon;timestamp;temperature;humidity
78541;SHT31;67835;51.968;5.646;2024-02-23T00:01:29;6.9;72.9
78541;SHT31;67835;51.968;5.646;2024-02-23T00:03:57;6.9;73.9
78541;SHT31;67835;51.968;5.646;2024-02-23T00:06:28;6.9;74.3
78541;SHT31;67835;51.968;5.646;2024-02-23T00:08:57;6.9;74.8
78541;SHT31;67835;51.968;5.646;2024-02-23T00:11:26;6.9;75.6
78541;SHT31;67835;51.968;5.646;2024-02-23T00:13:56;6.9;76.1
78541;SHT31;67835;51.968;5.646;2024-02-23T00:16:25;6.9;76.3
78541;SHT31;67835;51.968;5.646;2024-02-23T00:18:55;6.9;76.4
78541;SHT31;67835;51.968;5.646;2024-02-23T00:21:24;7.0;76.3
78541;SHT31;67835;51.968;5.646;2024-02-23T00:23:52;7.0;76.0
78541;SHT31;67835;51.968;5.646;2024-02-23T00:26:21;7.0;76.0
78541;SHT31;67835;51.968;5.646;2024-02-23T00:28:50;7.0;76.2
78541;SHT31;67835;51.968;5.646;2024-02-23T00:31:18;7.0;76.3
78541;SHT31;67835;51.968;5.646;2024-02-23T00:33:46;7.0;76.3
78541;SHT31;67835;51.968;5.646;2024-02-23T00:36:15;7.0;76.0
78541;SHT31;67835;51.968;5.646;2024-02-23T00:38:44;7.1;75.0
78541;SHT31;67835;51.968;5.646;2024-02-23T00:41:12;7.1;75.3
78541;SHT31;67835;51.968;5.646;2024-02-23T00:43:41;7.1;74.7
78541;SHT31;67835;51.968;5.646;2024-02-23T00:46:10;7.1;74.5
78541;SHT31;67835;51.968;5.646;2024-02-23T00:48:38;7.1;73.9
78541;SHT31;67835;51.968;5.646;2024-02-23T00:51:06;7.1;73.7
78541;SHT31;67835;51.968;5.646;2024-02-23T00:53:35;7.0;72.5
78541;SHT31;67835;51.968;5.646;2024-02-23T00:56:04;6.9;71.8
78541;SHT31;67835;51.968;5.646;2024-02-23T00:58:33;6.9;71.8
78541;SHT31;67835;51.968;5.646;2024-02-23T01:01:02;6.8;71.5
78541;SHT31;67835;51.968;5.646;2024-02-23T01:03:31;6.7;71.9
78541;SHT31;67835;51.968;5.646;2024-02-23T01:06:00;6.7;72.2
78541;SHT31;67835;51.968;5.646;2024-02-23T01:08:28;6.6;72.8
78541;SHT31;67835;51.968;5.646;2024-02-23T01:10:59;6.6;73.8
78541;SHT31;67835;51.968;5.646;2024-02-23T01:13:28;6.5;75.4
78541;SHT31;67835;51.968;5.646;2024-02-23T01:15:57;6.5;76.1
78541;SHT31;67835;51.968;5.646;2024-02-23T01:18:25;6.5;76.9
78541;SHT31;67835;51.968;5.646;2024-02-23T01:20:56;6.5;77.1
78541;SHT31;67835;51.968;5.646;2024-02-23T01:23:24;6.5;77.2
78541;SHT31;67835;51.968;5.646;2024-02-23T01:25:53;6.5;77.1
78541;SHT31;67835;51.968;5.646;2024-02-23T01:28:21;6.5;76.9
78541;SHT31;67835;51.968;5.646;2024-02-23T01:30:50;6.5;76.8
78541;SHT31;67835;51.968;5.646;2024-02-23T01:33:19;6.5;76.8
78541;SHT31;67835;51.968;5.646;2024-02-23T01:35:47;6.5;76.6
78541;SHT31;67835;51.968;5.646;2024-02-23T01:38:17;6.5;76.4
78541;SHT31;67835;51.968;5.646;2024-02-23T01:40:48;6.5;76.3
78541;SHT31;67835;51.968;5.646;2024-02-23T01:43:16;6.5;76.3
78541;SHT31;67835;51.968;5.646;2024-02-23T01:45:45;6.5;76.2
78541;SHT31;67835;51.968;5.646;2024-02-23T01:48:14;6.5;76.1
78541;SHT31;67835;51.968;5.646;2024-02-23T01:50:42;6.5;75.9
78541;SHT31;67835;51.968;5.646;2024-02-23T01:53:12;6.5;75.7
78541;SHT31;67835;51.968;5.646;2024-02-23T01:55:42;6.6;75.5
78541;SHT31;67835;51.968;5.646;2024-02-23T01:58:11;6.6;75.1
78541;SHT31;67835;51.968;5.646;2024-02-23T02:00:40;6.6;74.9
78541;SHT31;67835;51.968;5.646;2024-02-23T02:03:09;6.6;74.6
78541;SHT31;67835;51.968;5.646;2024-02-23T02:05:38;6.6;74.5
78541;SHT31;67835;51.968;5.646;2024-02-23T02:08:07;6.6;74.3
78541;SHT31;67835;51.968;5.646;2024-02-23T02:10:36;6.7;74.1
78541;SHT31;67835;51.968;5.646;2024-02-23T02:13:05;6.7;73.8
78541;SHT31;67835;51.968;5.646;2024-02-23T02:15:34;6.7;73.6
78541;SHT31;67835;51.968;5.646;2024-02-23T02:18:02;6.7;73.2
78541;SHT31;67835;51.968;5.646;2024-02-23T02:20:33;6.7;73.3
78541;SHT31;67835;51.968;5.646;2024-02-23T02:23:01;6.7;73.1
78541;SHT31;67835;51.968;5.646;2024-02-23T02:25:30;6.7;73.0
78541;SHT31;67835;51.968;5.646;2024-02-23T02:27:59;6.7;73.1
78541;SHT31;67835;51.968;5.646;2024-02-23T02:30:27;6.7;72.9
78541;SHT31;67835;51.968;5.646;2024-02-23T02:32:55;6.7;72.9
78541;SHT31;67835;51.968;5.646;2024-02-23T02:35:24;6.7;72.7
78541;SHT31;67835;51.968;5.646;2024-02-23T02:37:52;6.7;72.6
78541;SHT31;67835;51.968;5.646;2024-02-23T02:40:21;6.7;72.5
78541;SHT31;67835;51.968;5.646;2024-02-23T02:42:49;6.7;72.4
78541;SHT31;67835;51.968;5.646;2024-02-23T02:45:17;6.7;72.6
78541;SHT31;67835;51.968;5.646;2024-02-23T02:47:46;6.7;72.5
78541;SHT31;67835;51.968;5.646;2024-02-23T02:50:15;6.7;72.5
78541;SHT31;67835;51.968;5.646;2024-02-23T02:52:43;6.7;72.4
78541;SHT31;67835;51.968;5.646;2024-02-23T02:55:12;6.7;72.4
78541;SHT31;67835;51.968;5.646;2024-02-23T02:57:41;6.7;72.5
78541;SHT31;67835;51.968;5.646;2024-02-23T03:00:13;6.7;72.4
78541;SHT31;67835;51.968;5.646;2024-02-23T03:02:41;6.7;72.2
78541;SHT31;67835;51.968;5.646;2024-02-23T03:05:10;6.8;72.0
78541;SHT31;67835;51.968;5.646;2024-02-23T03:07:38;6.8;71.9
78541;SHT31;67835;51.968;5.646;2024-02-23T03:10:08;6.8;71.8
78541;SHT31;67835;51.968;5.646;2024-02-23T03:12:37;6.8;71.5
78541;SHT31;67835;51.968;5.646;2024-02-23T03:15:06;6.8;71.1
78541;SHT31;67835;51.968;5.646;2024-02-23T03:17:36;6.8;71.1
78541;SHT31;67835;51.968;5.646;2024-02-23T03:20:05;6.8;71.1
78541;SHT31;67835;51.968;5.646;2024-02-23T03:22:35;6.7;70.9
78541;SHT31;67835;51.968;5.646;2024-02-23T03:25:04;6.7;71.4
78541;SHT31;67835;51.968;5.646;2024-02-23T03:27:37;6.8;71.6
78541;SHT31;67835;51.968;5.646;2024-02-23T03:30:07;6.8;71.6
78541;SHT31;67835;51.968;5.646;2024-02-23T03:32:36;6.8;71.9
78541;SHT31;67835;51.968;5.646;2024-02-23T03:35:07;6.8;71.8
78541;SHT31;67835;51.968;5.646;2024-02-23T03:37:38;6.8;71.5
78541;SHT31;67835;51.968;5.646;2024-02-23T03:40:08;6.9;71.3
78541;SHT31;67835;51.968;5.646;2024-02-23T03:42:37;6.9;71.0
78541;SHT31;67835;51.968;5.646;2024-02-23T03:45:06;6.9;71.0
78541;SHT31;67835;51.968;5.646;2024-02-23T03:47:35;6.9;71.0
78541;SHT31;67835;51.968;5.646;2024-02-23T03:50:05;6.9;70.9
78541;SHT31;67835;51.968;5.646;2024-02-23T03:52:33;6.9;70.9
78541;SHT31;67835;51.968;5.646;2024-02-23T03:55:03;6.9;70.9
78541;SHT31;67835;51.968;5.646;2024-02-23T03:57:33;6.9;71.1
78541;SHT31;67835;51.968;5.646;2024-02-23T04:00:01;6.9;70.9
78541;SHT31;67835;51.968;5.646;2024-02-23T04:02:29;6.8;71.3
78541;SHT31;67835;51.968;5.646;2024-02-23T04:04:58;6.8;71.3
78541;SHT31;67835;51.968;5.646;2024-02-23T04:07:26;6.8;71.2
78541;SHT31;67835;51.968;5.646;2024-02-23T04:09:55;6.8;71.2
78541;SHT31;67835;51.968;5.646;2024-02-23T04:12:24;6.8;71.1
78541;SHT31;67835;51.968;5.646;2024-02-23T04:14:53;6.8;70.9
78541;SHT31;67835;51.968;5.646;2024-02-23T04:17:21;6.8;71.1
78541;SHT31;67835;51.968;5.646;2024-02-23T04:19:50;6.8;70.9
78541;SHT31;67835;51.968;5.646;2024-02-23T04:22:18;6.8;71.0
78541;SHT31;67835;51.968;5.646;2024-02-23T04:24:46;6.8;71.0
78541;SHT31;67835;51.968;5.646;2024-02-23T04:27:15;6.8;71.1
78541;SHT31;67835;51.968;5.646;2024-02-23T04:29:44;6.8;71.1
78541;SHT31;67835;51.968;5.646;2024-02-23T04:32:14;6.8;71.3
78541;SHT31;67835;51.968;5.646;2024-02-23T04:34:42;6.8;71.4
78541;SHT31;67835;51.968;5.646;2024-02-23T04:37:11;6.8;71.4
78541;SHT31;67835;51.968;5.646;2024-02-23T04:39:39;6.8;71.3
78541;SHT31;67835;51.968;5.646;2024-02-23T04:42:08;6.8;71.1
78541;SHT31;67835;51.968;5.646;2024-02-23T04:44:37;6.8;71.3
78541;SHT31;67835;51.968;5.646;2024-02-23T04:47:07;6.8;71.4
78541;SHT31;67835;51.968;5.646;2024-02-23T04:49:36;6.8;71.5
78541;SHT31;67835;51.968;5.646;2024-02-23T04:52:05;6.9;71.4
78541;SHT31;67835;51.968;5.646;2024-02-23T04:54:35;6.9;71.3
78541;SHT31;67835;51.968;5.646;2024-02-23T04:57:03;6.9;71.3
78541;SHT31;67835;51.968;5.646;2024-02-23T04:59:34;7.0;70.9
78541;SHT31;67835;51.968;5.646;2024-02-23T05:02:02;7.0;70.8
78541;SHT31;67835;51.968;5.646;2024-02-23T05:04:30;7.0;70.7
78541;SHT31;67835;51.968;5.646;2024-02-23T05:07:00;7.1;70.6
78541;SHT31;67835;51.968;5.646;2024-02-23T05:09:28;7.1;70.2
78541;SHT31;67835;51.968;5.646;2024-02-23T05:11:58;7.1;70.2
78541;SHT31;67835;51.968;5.646;2024-02-23T05:14:26;7.2;69.9
78541;SHT31;67835;51.968;5.646;2024-02-23T05:16:55;7.2;69.7
78541;SHT31;67835;51.968;5.646;2024-02-23T05:19:23;7.3;69.7
78541;SHT31;67835;51.968;5.646;2024-02-23T05:21:52;7.3;69.2
78541;SHT31;67835;51.968;5.646;2024-02-23T05:24:20;7.3;69.2
78541;SHT31;67835;51.968;5.646;2024-02-23T05:26:50;7.4;68.8
78541;SHT31;67835;51.968;5.646;2024-02-23T05:29:19;7.4;68.9
78541;SHT31;67835;51.968;5.646;2024-02-23T05:31:50;7.4;68.5
78541;SHT31;67835;51.968;5.646;2024-02-23T05:34:19;7.4;68.6
78541;SHT31;67835;51.968;5.646;2024-02-23T05:36:48;7.5;68.2
78541;SHT31;67835;51.968;5.646;2024-02-23T05:39:19;7.5;68.2
78541;SHT31;67835;51.968;5.646;2024-02-23T05:41:47;7.6;67.7
78541;SHT31;67835;51.968;5.646;2024-02-23T05:44:16;7.6;67.8
78541;SHT31;67835;51.968;5.646;2024-02-23T05:46:45;7.6;67.5
78541;SHT31;67835;51.968;5.646;2024-02-23T05:49:13;7.7;67.2
78541;SHT31;67835;51.968;5.646;2024-02-23T05:51:44;7.7;67.4
78541;SHT31;67835;51.968;5.646;2024-02-23T05:54:14;7.7;66.9
78541;SHT31;67835;51.968;5.646;2024-02-23T05:56:44;7.7;66.8
78541;SHT31;67835;51.968;5.646;2024-02-23T05:59:13;7.8;66.6
78541;SHT31;67835;51.968;5.646;2024-02-23T06:01:41;7.8;66.4
78541;SHT31;67835;51.968;5.646;2024-02-23T06:04:10;7.8;66.3
78541;SHT31;67835;51.968;5.646;2024-02-23T06:06:41;7.8;66.2
78541;SHT31;67835;51.968;5.646;2024-02-23T06:09:09;7.8;66.4
78541;SHT31;67835;51.968;5.646;2024-02-23T06:11:38;7.8;65.9
78541;SHT31;67835;51.968;5.646;2024-02-23T06:14:06;7.8;66.6
78541;SHT31;67835;51.968;5.646;2024-02-23T06:16:35;7.8;66.3
78541;SHT31;67835;51.968;5.646;2024-02-23T06:19:04;7.9;66.4
78541;SHT31;67835;51.968;5.646;2024-02-23T06:21:32;7.9;66.0
78541;SHT31;67835;51.968;5.646;2024-02-23T06:24:00;7.9;66.0
78541;SHT31;67835;51.968;5.646;2024-02-23T06:26:29;7.9;66.0
78541;SHT31;67835;51.968;5.646;2024-02-23T06:28:58;7.9;65.6
78541;SHT31;67835;51.968;5.646;2024-02-23T06:31:26;7.9;65.8
78541;SHT31;67835;51.968;5.646;2024-02-23T06:33:55;7.9;65.7
78541;SHT31;67835;51.968;5.646;2024-02-23T06:36:23;7.9;65.7
78541;SHT31;67835;51.968;5.646;2024-02-23T06:38:51;7.9;65.7
78541;SHT31;67835;51.968;5.646;2024-02-23T06:41:20;8.0;66.0
78541;SHT31;67835;51.968;5.646;2024-02-23T06:43:48;8.0;65.7
78541;SHT31;67835;51.968;5.646;2024-02-23T06:46:19;8.0;65.7
78541;SHT31;67835;51.968;5.646;2024-02-23T06:48:50;8.0;65.7
78541;SHT31;67835;51.968;5.646;2024-02-23T06:51:20;8.0;65.9
78541;SHT31;67835;51.968;5.646;2024-02-23T06:53:49;8.1;65.7
78541;SHT31;67835;51.968;5.646;2024-02-23T06:56:19;8.1;64.7
78541;SHT31;67835;51.968;5.646;2024-02-23T06:58:48;8.1;65.2
78541;SHT31;67835;51.968;5.646;2024-02-23T07:01:19;8.1;65.4
78541;SHT31;67835;51.968;5.646;2024-02-23T07:03:48;8.1;65.2
78541;SHT31;67835;51.968;5.646;2024-02-23T07:06:17;8.1;64.7
78541;SHT31;67835;51.968;5.646;2024-02-23T07:08:48;8.1;64.1
78541;SHT31;67835;51.968;5.646;2024-02-23T07:11:16;8.2;64.0
78541;SHT31;67835;51.968;5.646;2024-02-23T07:13:45;8.2;64.7
78541;SHT31;67835;51.968;5.646;2024-02-23T07:16:13;8.2;63.9
78541;SHT31;67835;51.968;5.646;2024-02-23T07:18:42;8.2;63.9
78541;SHT31;67835;51.968;5.646;2024-02-23T07:21:10;8.2;63.1
78541;SHT31;67835;51.968;5.646;2024-02-23T07:23:39;8.2;63.7
78541;SHT31;67835;51.968;5.646;2024-02-23T07:26:07;8.2;63.4
78541;SHT31;67835;51.968;5.646;2024-02-23T07:28:35;8.2;63.6
78541;SHT31;67835;51.968;5.646;2024-02-23T07:31:04;8.3;63.7
78541;SHT31;67835;51.968;5.646;2024-02-23T07:33:33;8.3;63.5
78541;SHT31;67835;51.968;5.646;2024-02-23T07:36:01;8.3;63.3
78541;SHT31;67835;51.968;5.646;2024-02-23T07:38:30;8.3;63.2
78541;SHT31;67835;51.968;5.646;2024-02-23T07:40:58;8.3;63.3
78541;SHT31;67835;51.968;5.646;2024-02-23T07:43:28;8.4;63.0
78541;SHT31;67835;51.968;5.646;2024-02-23T07:45:57;8.4;62.4
78541;SHT31;67835;51.968;5.646;2024-02-23T07:48:25;8.4;62.4
78541;SHT31;67835;51.968;5.646;2024-02-23T07:50:54;8.4;62.9
78541;SHT31;67835;51.968;5.646;2024-02-23T07:53:22;8.4;62.9
78541;SHT31;67835;51.968;5.646;2024-02-23T07:55:50;8.5;62.0
78541;SHT31;67835;51.968;5.646;2024-02-23T07:58:19;8.5;62.4
78541;SHT31;67835;51.968;5.646;2024-02-23T08:00:48;8.5;62.0
78541;SHT31;67835;51.968;5.646;2024-02-23T08:03:16;8.6;61.8
78541;SHT31;67835;51.968;5.646;2024-02-23T08:05:44;8.7;61.5
78541;SHT31;67835;51.968;5.646;2024-02-23T08:08:13;8.7;60.9
78541;SHT31;67835;51.968;5.646;2024-02-23T08:10:41;8.8;60.7
78541;SHT31;67835;51.968;5.646;2024-02-23T08:13:10;8.8;60.9
78541;SHT31;67835;51.968;5.646;2024-02-23T08:15:39;8.8;60.3
78541;SHT31;67835;51.968;5.646;2024-02-23T08:18:07;8.9;60.2
78541;SHT31;67835;51.968;5.646;2024-02-23T08:20:36;8.9;60.3
78541;SHT31;67835;51.968;5.646;2024-02-23T08:23:05;8.9;60.3
78541;SHT31;67835;51.968;5.646;2024-02-23T08:25:36;8.9;60.3
78541;SHT31;67835;51.968;5.646;2024-02-23T08:28:05;8.9;60.0
78541;SHT31;67835;51.968;5.646;2024-02-23T08:30:34;8.9;61.0
78541;SHT31;67835;51.968;5.646;2024-02-23T08:33:02;8.9;60.8
78541;SHT31;67835;51.968;5.646;2024-02-23T08:35:31;8.9;60.1
78541;SHT31;67835;51.968;5.646;2024-02-23T08:38:00;9.0;60.6
78541;SHT31;67835;51.968;5.646;2024-02-23T08:40:30;9.1;60.6
78541;SHT31;67835;51.968;5.646;2024-02-23T08:42:58;9.1;59.7
78541;SHT31;67835;51.968;5.646;2024-02-23T08:45:27;9.2;59.2
78541;SHT31;67835;51.968;5.646;2024-02-23T08:47:55;9.3;59.1
78541;SHT31;67835;51.968;5.646;2024-02-23T08:50:24;9.3;59.2
78541;SHT31;67835;51.968;5.646;2024-02-23T08:52:53;9.3;58.7
78541;SHT31;67835;51.968;5.646;2024-02-23T08:55:21;9.3;59.1
78541;SHT31;67835;51.968;5.646;2024-02-23T08:57:50;9.3;58.3
78541;SHT31;67835;51.968;5.646;2024-02-23T09:00:21;9.4;58.7
78541;SHT31;67835;51.968;5.646;2024-02-23T09:02:50;9.4;58.2
78541;SHT31;67835;51.968;5.646;2024-02-23T09:05:19;9.4;58.3
78541;SHT31;67835;51.968;5.646;2024-02-23T09:07:47;9.4;58.7
78541;SHT31;67835;51.968;5.646;2024-02-23T09:10:17;9.4;58.3
78541;SHT31;67835;51.968;5.646;2024-02-23T09:12:46;9.4;58.5
78541;SHT31;67835;51.968;5.646;2024-02-23T09:15:14;9.4;58.8
78541;SHT31;67835;51.968;5.646;2024-02-23T09:17:43;9.4;58.5
78541;SHT31;67835;51.968;5.646;2024-02-23T09:20:12;9.4;58.7
78541;SHT31;67835;51.968;5.646;2024-02-23T09:22:40;9.4;58.9
78541;SHT31;67835;51.968;5.646;2024-02-23T09:25:09;9.4;59.2
78541;SHT31;67835;51.968;5.646;2024-02-23T09:27:38;9.4;59.5
78541;SHT31;67835;51.968;5.646;2024-02-23T09:30:11;9.4;59.2
78541;SHT31;67835;51.968;5.646;2024-02-23T09:32:40;9.5;58.6
78541;SHT31;67835;51.968;5.646;2024-02-23T09:35:09;9.5;59.0
78541;SHT31;67835;51.968;5.646;2024-02-23T09:37:37;9.5;59.8
78541;SHT31;67835;51.968;5.646;2024-02-23T09:40:07;9.6;59.6
78541;SHT31;67835;51.968;5.646;2024-02-23T09:42:36;9.6;58.9
78541;SHT31;67835;51.968;5.646;2024-02-23T09:45:07;9.6;59.5
78541;SHT31;67835;51.968;5.646;2024-02-23T09:47:37;9.6;59.4
78541;SHT31;67835;51.968;5.646;2024-02-23T09:50:06;9.7;59.4
78541;SHT31;67835;51.968;5.646;2024-02-23T09:52:37;9.7;59.8
78541;SHT31;67835;51.968;5.646;2024-02-23T09:55:06;9.7;59.9
78541;SHT31;67835;51.968;5.646;2024-02-23T09:57:35;9.7;60.6
78541;SHT31;67835;51.968;5.646;2024-02-23T10:00:06;9.7;61.8
78541;SHT31;67835;51.968;5.646;2024-02-23T10:02:36;9.6;62.9
78541;SHT31;67835;51.968;5.646;2024-02-23T10:05:07;9.6;63.8
78541;SHT31;67835;51.968;5.646;2024-02-23T10:07:36;9.5;64.2
78541;SHT31;67835;51.968;5.646;2024-02-23T10:10:08;9.5;63.9
78541;SHT31;67835;51.968;5.646;2024-02-23T10:12:37;9.4;64.5
78541;SHT31;67835;51.968;5.646;2024-02-23T10:15:07;9.4;65.1
78541;SHT31;67835;51.968;5.646;2024-02-23T10:17:36;9.3;64.0
78541;SHT31;67835;51.968;5.646;2024-02-23T10:20:07;9.3;64.8
78541;SHT31;67835;51.968;5.646;2024-02-23T10:22:37;9.3;64.6
78541;SHT31;67835;51.968;5.646;2024-02-23T10:25:06;9.3;64.5
78541;SHT31;67835;51.968;5.646;2024-02-23T10:27:35;9.3;64.4
78541;SHT31;67835;51.968;5.646;2024-02-23T10:30:04;9.3;64.0
78541;SHT31;67835;51.968;5.646;2024-02-23T10:32:37;9.3;64.2
78541;SHT31;67835;51.968;5.646;2024-02-23T10:35:11;9.3;63.8
78541;SHT31;67835;51.968;5.646;2024-02-23T10:37:44;9.3;63.9
78541;SHT31;67835;51.968;5.646;2024-02-23T10:40:16;9.3;64.0
78541;SHT31;67835;51.968;5.646;2024-02-23T10:42:47;9.3;63.6
78541;SHT31;67835;51.968;5.646;2024-02-23T10:45:19;9.3;63.5
78541;SHT31;67835;51.968;5.646;2024-02-23T10:47:48;9.4;62.7
78541;SHT31;67835;51.968;5.646;2024-02-23T10:50:19;9.4;63.0
78541;SHT31;67835;51.968;5.646;2024-02-23T10:52:49;9.4;63.2
78541;SHT31;67835;51.968;5.646;2024-02-23T10:55:22;9.4;62.9
78541;SHT31;67835;51.968;5.646;2024-02-23T10:57:51;9.5;62.5
78541;SHT31;67835;51.968;5.646;2024-02-23T11:00:21;9.5;62.2
78541;SHT31;67835;51.968;5.646;2024-02-23T11:02:53;9.5;61.9
78541;SHT31;67835;51.968;5.646;2024-02-23T11:05:23;9.5;61.8
78541;SHT31;67835;51.968;5.646;2024-02-23T11:07:56;9.5;61.9
78541;SHT31;67835;51.968;5.646;2024-02-23T11:10:24;9.6;62.0
78541;SHT31;67835;51.968;5.646;2024-02-23T11:12:59;9.6;61.9
78541;SHT31;67835;51.968;5.646;2024-02-23T11:15:30;9.6;62.8
78541;SHT31;67835;51.968;5.646;2024-02-23T11:18:00;9.6;61.7
78541;SHT31;67835;51.968;5.646;2024-02-23T11:20:37;9.6;61.3
78541;SHT31;67835;51.968;5.646;2024-02-23T11:23:14;9.6;61.6
78541;SHT31;67835;51.968;5.646;2024-02-23T11:25:43;9.6;62.2
78541;SHT31;67835;51.968;5.646;2024-02-23T11:28:24;9.6;61.5
78541;SHT31;67835;51.968;5.646;2024-02-23T11:30:53;9.6;61.8
78541;SHT31;67835;51.968;5.646;2024-02-23T11:33:28;9.7;62.4
78541;SHT31;67835;51.968;5.646;2024-02-23T11:36:07;9.7;62.2
78541;SHT31;67835;51.968;5.646;2024-02-23T11:38:36;9.7;61.8
78541;SHT31;67835;51.968;5.646;2024-02-23T11:41:07;9.8;61.5
78541;SHT31;67835;51.968;5.646;2024-02-23T11:43:37;9.8;61.5
78541;SHT31;67835;51.968;5.646;2024-02-23T11:46:07;9.8;61.3
78541;SHT31;67835;51.968;5.646;2024-02-23T11:48:35;9.9;61.7
78541;SHT31;67835;51.968;5.646;2024-02-23T11:51:04;9.9;62.0
78541;SHT31;67835;51.968;5.646;2024-02-23T11:53:33;9.9;62.4
78541;SHT31;67835;51.968;5.646;2024-02-23T11:56:02;10.0;61.0
78541;SHT31;67835;51.968;5.646;2024-02-23T11:58:34;10.0;61.6
78541;SHT31;67835;51.968;5.646;2024-02-23T12:01:04;10.1;61.3
78541;SHT31;67835;51.968;5.646;2024-02-23T12:03:33;10.1;60.6
78541;SHT31;67835;51.968;5.646;2024-02-23T12:06:02;10.1;60.2
78541;SHT31;67835;51.968;5.646;2024-02-23T12:08:32;10.2;60.3
78541;SHT31;67835;51.968;5.646;2024-02-23T12:11:05;10.2;60.5
78541;SHT31;67835;51.968;5.646;2024-02-23T12:13:35;10.2;60.7
78541;SHT31;67835;51.968;5.646;2024-02-23T12:16:07;10.3;60.7
78541;SHT31;67835;51.968;5.646;2024-02-23T12:18:36;10.3;60.3
78541;SHT31;67835;51.968;5.646;2024-02-23T12:21:07;10.3;60.7
78541;SHT31;67835;51.968;5.646;2024-02-23T12:23:40;10.4;59.6
78541;SHT31;67835;51.968;5.646;2024-02-23T12:26:12;10.4;59.3
78541;SHT31;67835;51.968;5.646;2024-02-23T12:28:41;10.4;59.2
78541;SHT31;67835;51.968;5.646;2024-02-23T12:31:10;10.5;59.8
78541;SHT31;67835;51.968;5.646;2024-02-23T12:33:40;10.5;58.7
78541;SHT31;67835;51.968;5.646;2024-02-23T12:36:14;10.5;59.4
78541;SHT31;67835;51.968;5.646;2024-02-23T12:38:44;10.8;61.2
78541;SHT31;67835;51.968;5.646;2024-02-23T12:41:12;11.5;59.3
78541;SHT31;67835;51.968;5.646;2024-02-23T12:43:40;12.6;55.1
78541;SHT31;67835;51.968;5.646;2024-02-23T12:46:11;13.1;52.3
78541;SHT31;67835;51.968;5.646;2024-02-23T12:48:42;13.3;51.2
78541;SHT31;67835;51.968;5.646;2024-02-23T12:51:11;13.3;50.4
78541;SHT31;67835;51.968;5.646;2024-02-23T12:53:41;13.3;50.7
78541;SHT31;67835;51.968;5.646;2024-02-23T12:56:11;13.2;50.8
78541;SHT31;67835;51.968;5.646;2024-02-23T12:58:43;13.1;50.9
78541;SHT31;67835;51.968;5.646;2024-02-23T13:01:19;13.0;50.5
78541;SHT31;67835;51.968;5.646;2024-02-23T13:03:48;12.9;51.5
78541;SHT31;67835;51.968;5.646;2024-02-23T13:06:16;12.8;52.0
78541;SHT31;67835;51.968;5.646;2024-02-23T13:08:45;12.8;52.7
78541;SHT31;67835;51.968;5.646;2024-02-23T13:11:15;12.7;52.1
78541;SHT31;67835;51.968;5.646;2024-02-23T13:13:43;12.7;52.8
78541;SHT31;67835;51.968;5.646;2024-02-23T13:16:12;12.6;52.5
78541;SHT31;67835;51.968;5.646;2024-02-23T13:18:41;12.6;52.7
78541;SHT31;67835;51.968;5.646;2024-02-23T13:21:10;12.5;52.6
78541;SHT31;67835;51.968;5.646;2024-02-23T13:23:39;12.5;52.3
78541;SHT31;67835;51.968;5.646;2024-02-23T13:26:10;12.4;50.8
78541;SHT31;67835;51.968;5.646;2024-02-23T13:28:41;12.4;50.8
78541;SHT31;67835;51.968;5.646;2024-02-23T13:31:10;12.3;52.1
78541;SHT31;67835;51.968;5.646;2024-02-23T13:33:38;12.2;52.0
78541;SHT31;67835;51.968;5.646;2024-02-23T13:36:08;12.2;52.6
78541;SHT31;67835;51.968;5.646;2024-02-23T13:38:37;12.2;51.9
78541;SHT31;67835;51.968;5.646;2024-02-23T13:41:06;12.2;52.2
78541;SHT31;67835;51.968;5.646;2024-02-23T13:43:34;12.1;52.6
78541;SHT31;67835;51.968;5.646;2024-02-23T13:46:04;12.1;53.7
78541;SHT31;67835;51.968;5.646;2024-02-23T13:48:32;12.1;51.5
78541;SHT31;67835;51.968;5.646;2024-02-23T13:51:01;12.1;52.7
78541;SHT31;67835;51.968;5.646;2024-02-23T13:53:31;12.1;52.8
78541;SHT31;67835;51.968;5.646;2024-02-23T13:56:03;12.1;52.6
78541;SHT31;67835;51.968;5.646;2024-02-23T13:58:32;12.1;52.6
78541;SHT31;67835;51.968;5.646;2024-02-23T14:01:01;12.1;52.6
78541;SHT31;67835;51.968;5.646;2024-02-23T14:03:29;12.2;54.0
78541;SHT31;67835;51.968;5.646;2024-02-23T14:05:58;12.2;53.0
78541;SHT31;67835;51.968;5.646;2024-02-23T14:08:27;12.4;52.7
78541;SHT31;67835;51.968;5.646;2024-02-23T14:10:55;12.5;51.9
78541;SHT31;67835;51.968;5.646;2024-02-23T14:13:24;12.6;51.1
78541;SHT31;67835;51.968;5.646;2024-02-23T14:15:54;12.6;51.0
78541;SHT31;67835;51.968;5.646;2024-02-23T14:18:23;12.6;51.4
78541;SHT31;67835;51.968;5.646;2024-02-23T14:20:51;12.6;50.8
78541;SHT31;67835;51.968;5.646;2024-02-23T14:23:22;12.6;51.4
78541;SHT31;67835;51.968;5.646;2024-02-23T14:25:50;12.6;51.7
78541;SHT31;67835;51.968;5.646;2024-02-23T14:28:19;12.5;52.3
78541;SHT31;67835;51.968;5.646;2024-02-23T14:30:48;12.5;51.9
78541;SHT31;67835;51.968;5.646;2024-02-23T14:33:16;12.6;52.5
78541;SHT31;67835;51.968;5.646;2024-02-23T14:35:46;12.7;52.2
78541;SHT31;67835;51.968;5.646;2024-02-23T14:38:15;12.8;51.4
78541;SHT31;67835;51.968;5.646;2024-02-23T14:40:44;12.9;51.7
78541;SHT31;67835;51.968;5.646;2024-02-23T14:43:13;12.9;50.7
78541;SHT31;67835;51.968;5.646;2024-02-23T14:45:42;12.9;50.5
78541;SHT31;67835;51.968;5.646;2024-02-23T14:48:12;12.9;50.6
78541;SHT31;67835;51.968;5.646;2024-02-23T14:50:41;12.9;50.9
78541;SHT31;67835;51.968;5.646;2024-02-23T14:53:09;12.8;52.4
78541;SHT31;67835;51.968;5.646;2024-02-23T14:55:40;12.8;53.3
78541;SHT31;67835;51.968;5.646;2024-02-23T14:58:09;12.7;53.1
78541;SHT31;67835;51.968;5.646;2024-02-23T15:00:38;12.7;53.9
78541;SHT31;67835;51.968;5.646;2024-02-23T15:03:07;12.6;53.9
78541;SHT31;67835;51.968;5.646;2024-02-23T15:05:36;12.6;54.0
78541;SHT31;67835;51.968;5.646;2024-02-23T15:08:06;12.5;54.1
78541;SHT31;67835;51.968;5.646;2024-02-23T15:10:35;12.4;54.0
78541;SHT31;67835;51.968;5.646;2024-02-23T15:13:04;12.3;53.8
78541;SHT31;67835;51.968;5.646;2024-02-23T15:15:32;12.2;54.7
78541;SHT31;67835;51.968;5.646;2024-02-23T15:18:02;12.1;54.9
78541;SHT31;67835;51.968;5.646;2024-02-23T15:20:30;12.0;56.1
78541;SHT31;67835;51.968;5.646;2024-02-23T15:22:59;11.9;58.3
78541;SHT31;67835;51.968;5.646;2024-02-23T15:25:28;11.7;60.5
78541;SHT31;67835;51.968;5.646;2024-02-23T15:27:57;11.5;62.2
78541;SHT31;67835;51.968;5.646;2024-02-23T15:30:26;11.3;65.2
78541;SHT31;67835;51.968;5.646;2024-02-23T15:32:54;11.1;69.4
78541;SHT31;67835;51.968;5.646;2024-02-23T15:35:23;11.0;69.8
78541;SHT31;67835;51.968;5.646;2024-02-23T15:37:52;11.0;69.7
78541;SHT31;67835;51.968;5.646;2024-02-23T15:40:21;11.0;68.5
78541;SHT31;67835;51.968;5.646;2024-02-23T15:42:50;11.1;66.9
78541;SHT31;67835;51.968;5.646;2024-02-23T15:45:19;11.2;66.7
78541;SHT31;67835;51.968;5.646;2024-02-23T15:47:47;11.3;65.3
78541;SHT31;67835;51.968;5.646;2024-02-23T15:50:18;11.4;63.8
78541;SHT31;67835;51.968;5.646;2024-02-23T15:52:47;11.4;62.9
78541;SHT31;67835;51.968;5.646;2024-02-23T15:55:16;11.5;61.7
78541;SHT31;67835;51.968;5.646;2024-02-23T15:57:44;11.5;61.0
78541;SHT31;67835;51.968;5.646;2024-02-23T16:00:14;11.4;60.0
78541;SHT31;67835;51.968;5.646;2024-02-23T16:02:42;11.4;59.7
78541;SHT31;67835;51.968;5.646;2024-02-23T16:05:11;11.4;59.9
78541;SHT31;67835;51.968;5.646;2024-02-23T16:07:39;11.4;60.2
78541;SHT31;67835;51.968;5.646;2024-02-23T16:10:08;11.3;61.4
78541;SHT31;67835;51.968;5.646;2024-02-23T16:12:39;11.3;63.0
78541;SHT31;67835;51.968;5.646;2024-02-23T16:15:11;11.3;63.7
78541;SHT31;67835;51.968;5.646;2024-02-23T16:17:39;11.2;64.6
78541;SHT31;67835;51.968;5.646;2024-02-23T16:20:09;11.1;64.3
78541;SHT31;67835;51.968;5.646;2024-02-23T16:22:38;11.0;64.5
78541;SHT31;67835;51.968;5.646;2024-02-23T16:25:07;10.9;64.1
78541;SHT31;67835;51.968;5.646;2024-02-23T16:27:38;10.8;63.2